sensor_id;sensor_type;location;lat;lon;timestamp;P1;durP1;ratioP1;P2;durP2;ratioP2
13951;SDS011;39535;52.192;9.886;2023-06-22T00:01:07;8.63;;;7.93;;
13951;SDS011;39535;52.192;9.886;2023-06-22T00:03:34;7.90;;;7.20;;
13951;SDS011;39535;52.192;9.886;2023-06-22T00:06:00;9.00;;;8.50;;
13951;SDS011;39535;52.192;9.886;2023-06-22T00:08:26;8.03;;;7.53;;
13951;SDS011;39535;52.192;9.886;2023-06-22T00:10:53;8.53;;;8.03;;
13951;SDS011;39535;52.192;9.886;2023-06-22T00:13:20;8.57;;;8.07;;
13951;SDS011;39535;52.192;9.886;2023-06-22T00:15:47;8.73;;;8.13;;
13951;SDS011;39535;52.192;9.886;2023-06-22T00:18:13;8.27;;;7.77;;
13951;SDS011;39535;52.192;9.886;2023-06-22T00:20:41;8.37;;;7.87;;
13951;SDS011;39535;52.192;9.886;2023-06-22T00:23:07;9.33;;;8.43;;
13951;SDS011;39535;52.192;9.886;2023-06-22T00:25:34;8.50;;;7.90;;
13951;SDS011;39535;52.192;9.886;2023-06-22T00:28:01;7.33;;;6.63;;
13951;SDS011;39535;52.192;9.886;2023-06-22T00:30:29;8.80;;;7.90;;
13951;SDS011;39535;52.192;9.886;2023-06-22T00:32:56;8.30;;;7.80;;
13951;SDS011;39535;52.192;9.886;2023-06-22T00:35:23;8.07;;;7.37;;
13951;SDS011;39535;52.192;9.886;2023-06-22T00:37:53;7.77;;;7.27;;
13951;SDS011;39535;52.192;9.886;2023-06-22T00:40:25;8.03;;;7.53;;
13951;SDS011;39535;52.192;9.886;2023-06-22T00:42:52;7.40;;;6.90;;
13951;SDS011;39535;52.192;9.886;2023-06-22T00:45:18;8.33;;;7.83;;
13951;SDS011;39535;52.192;9.886;2023-06-22T00:47:46;7.70;;;7.20;;
13951;SDS011;39535;52.192;9.886;2023-06-22T00:50:13;7.73;;;7.33;;
13951;SDS011;39535;52.192;9.886;2023-06-22T00:52:45;8.80;;;8.20;;
13951;SDS011;39535;52.192;9.886;2023-06-22T00:55:14;8.27;;;7.77;;
13951;SDS011;39535;52.192;9.886;2023-06-22T00:57:42;8.67;;;8.17;;
13951;SDS011;39535;52.192;9.886;2023-06-22T01:00:10;8.37;;;7.87;;
13951;SDS011;39535;52.192;9.886;2023-06-22T01:02:42;7.83;;;7.33;;
13951;SDS011;39535;52.192;9.886;2023-06-22T01:05:11;8.33;;;7.73;;
13951;SDS011;39535;52.192;9.886;2023-06-22T01:07:39;7.93;;;7.33;;
13951;SDS011;39535;52.192;9.886;2023-06-22T01:10:14;8.80;;;8.13;;
13951;SDS011;39535;52.192;9.886;2023-06-22T01:12:47;8.50;;;7.90;;
13951;SDS011;39535;52.192;9.886;2023-06-22T01:15:18;8.37;;;7.77;;
13951;SDS011;39535;52.192;9.886;2023-06-22T01:17:49;8.90;;;8.30;;
13951;SDS011;39535;52.192;9.886;2023-06-22T01:20:19;8.27;;;7.77;;
13951;SDS011;39535;52.192;9.886;2023-06-22T01:22:50;8.57;;;8.07;;
13951;SDS011;39535;52.192;9.886;2023-06-22T01:25:31;8.00;;;7.50;;
13951;SDS011;39535;52.192;9.886;2023-06-22T01:28:11;8.33;;;7.73;;
13951;SDS011;39535;52.192;9.886;2023-06-22T01:30:50;8.43;;;7.90;;
13951;SDS011;39535;52.192;9.886;2023-06-22T01:33:31;9.27;;;8.50;;
13951;SDS011;39535;52.192;9.886;2023-06-22T01:36:00;7.93;;;7.43;;
13951;SDS011;39535;52.192;9.886;2023-06-22T01:38:28;8.87;;;8.33;;
13951;SDS011;39535;52.192;9.886;2023-06-22T01:40:56;8.57;;;7.97;;
13951;SDS011;39535;52.192;9.886;2023-06-22T01:43:23;8.90;;;8.20;;
13951;SDS011;39535;52.192;9.886;2023-06-22T01:45:52;9.00;;;8.47;;
13951;SDS011;39535;52.192;9.886;2023-06-22T01:48:19;10.23;;;9.53;;
13951;SDS011;39535;52.192;9.886;2023-06-22T01:50:47;8.77;;;7.97;;
13951;SDS011;39535;52.192;9.886;2023-06-22T01:53:13;8.90;;;8.40;;
13951;SDS011;39535;52.192;9.886;2023-06-22T01:55:40;8.80;;;8.10;;
13951;SDS011;39535;52.192;9.886;2023-06-22T01:58:06;8.60;;;8.00;;
13951;SDS011;39535;52.192;9.886;2023-06-22T02:00:33;8.00;;;7.50;;
13951;SDS011;39535;52.192;9.886;2023-06-22T02:03:05;9.10;;;8.40;;
13951;SDS011;39535;52.192;9.886;2023-06-22T02:05:36;9.80;;;9.00;;
13951;SDS011;39535;52.192;9.886;2023-06-22T02:08:09;9.03;;;8.43;;
13951;SDS011;39535;52.192;9.886;2023-06-22T02:10:38;9.13;;;8.50;;
13951;SDS011;39535;52.192;9.886;2023-06-22T02:13:07;8.57;;;7.77;;
13951;SDS011;39535;52.192;9.886;2023-06-22T02:15:34;9.17;;;8.57;;
13951;SDS011;39535;52.192;9.886;2023-06-22T02:18:02;9.77;;;9.07;;
13951;SDS011;39535;52.192;9.886;2023-06-22T02:20:30;8.73;;;7.87;;
13951;SDS011;39535;52.192;9.886;2023-06-22T02:22:56;9.80;;;9.00;;
13951;SDS011;39535;52.192;9.886;2023-06-22T02:25:23;10.43;;;9.73;;
13951;SDS011;39535;52.192;9.886;2023-06-22T02:27:49;9.43;;;8.73;;
13951;SDS011;39535;52.192;9.886;2023-06-22T02:30:15;10.87;;;9.97;;
13951;SDS011;39535;52.192;9.886;2023-06-22T02:32:42;13.73;;;11.87;;
13951;SDS011;39535;52.192;9.886;2023-06-22T02:35:08;11.93;;;10.67;;
13951;SDS011;39535;52.192;9.886;2023-06-22T02:37:36;11.80;;;10.77;;
13951;SDS011;39535;52.192;9.886;2023-06-22T02:40:06;10.50;;;9.70;;
13951;SDS011;39535;52.192;9.886;2023-06-22T02:42:34;22.60;;;10.43;;
13951;SDS011;39535;52.192;9.886;2023-06-22T02:45:00;10.97;;;10.07;;
13951;SDS011;39535;52.192;9.886;2023-06-22T02:47:26;10.33;;;9.47;;
13951;SDS011;39535;52.192;9.886;2023-06-22T02:49:53;10.03;;;9.23;;
13951;SDS011;39535;52.192;9.886;2023-06-22T02:52:19;9.60;;;8.80;;
13951;SDS011;39535;52.192;9.886;2023-06-22T02:54:47;9.87;;;9.03;;
13951;SDS011;39535;52.192;9.886;2023-06-22T02:57:13;9.97;;;9.00;;
13951;SDS011;39535;52.192;9.886;2023-06-22T02:59:40;10.23;;;9.50;;
13951;SDS011;39535;52.192;9.886;2023-06-22T03:02:06;10.33;;;9.67;;
13951;SDS011;39535;52.192;9.886;2023-06-22T03:04:33;9.30;;;8.47;;
13951;SDS011;39535;52.192;9.886;2023-06-22T03:07:00;10.50;;;9.80;;
13951;SDS011;39535;52.192;9.886;2023-06-22T03:09:28;10.03;;;9.43;;
13951;SDS011;39535;52.192;9.886;2023-06-22T03:11:55;9.73;;;9.13;;
13951;SDS011;39535;52.192;9.886;2023-06-22T03:14:22;11.70;;;10.63;;
13951;SDS011;39535;52.192;9.886;2023-06-22T03:16:48;10.20;;;9.20;;
13951;SDS011;39535;52.192;9.886;2023-06-22T03:19:15;9.80;;;9.17;;
13951;SDS011;39535;52.192;9.886;2023-06-22T03:21:41;9.70;;;8.90;;
13951;SDS011;39535;52.192;9.886;2023-06-22T03:24:08;9.13;;;8.53;;
13951;SDS011;39535;52.192;9.886;2023-06-22T03:26:34;9.43;;;8.83;;
13951;SDS011;39535;52.192;9.886;2023-06-22T03:29:02;9.23;;;8.63;;
13951;SDS011;39535;52.192;9.886;2023-06-22T03:31:29;10.23;;;9.53;;
13951;SDS011;39535;52.192;9.886;2023-06-22T03:33:55;10.73;;;10.03;;
13951;SDS011;39535;52.192;9.886;2023-06-22T03:36:21;10.53;;;9.63;;
13951;SDS011;39535;52.192;9.886;2023-06-22T03:38:48;9.80;;;9.10;;
13951;SDS011;39535;52.192;9.886;2023-06-22T03:41:16;10.17;;;9.37;;
13951;SDS011;39535;52.192;9.886;2023-06-22T03:43:42;9.87;;;9.10;;
13951;SDS011;39535;52.192;9.886;2023-06-22T03:46:10;9.57;;;8.93;;
13951;SDS011;39535;52.192;9.886;2023-06-22T03:48:37;9.53;;;8.93;;
13951;SDS011;39535;52.192;9.886;2023-06-22T03:51:03;11.57;;;10.87;;
13951;SDS011;39535;52.192;9.886;2023-06-22T03:53:30;10.33;;;9.63;;
13951;SDS011;39535;52.192;9.886;2023-06-22T03:55:56;10.70;;;9.93;;
13951;SDS011;39535;52.192;9.886;2023-06-22T03:58:23;11.73;;;10.83;;
13951;SDS011;39535;52.192;9.886;2023-06-22T04:00:50;10.87;;;10.07;;
13951;SDS011;39535;52.192;9.886;2023-06-22T04:03:19;11.07;;;10.17;;
13951;SDS011;39535;52.192;9.886;2023-06-22T04:05:45;11.90;;;10.67;;
13951;SDS011;39535;52.192;9.886;2023-06-22T04:08:12;11.07;;;10.17;;
13951;SDS011;39535;52.192;9.886;2023-06-22T04:10:39;11.77;;;10.77;;
13951;SDS011;39535;52.192;9.886;2023-06-22T04:13:05;10.90;;;10.10;;
13951;SDS011;39535;52.192;9.886;2023-06-22T04:15:32;10.93;;;10.23;;
13951;SDS011;39535;52.192;9.886;2023-06-22T04:17:58;12.13;;;11.33;;
13951;SDS011;39535;52.192;9.886;2023-06-22T04:20:26;11.40;;;10.70;;
13951;SDS011;39535;52.192;9.886;2023-06-22T04:22:52;10.83;;;10.00;;
13951;SDS011;39535;52.192;9.886;2023-06-22T04:25:19;12.93;;;11.40;;
13951;SDS011;39535;52.192;9.886;2023-06-22T04:27:46;11.43;;;10.37;;
13951;SDS011;39535;52.192;9.886;2023-06-22T04:30:13;11.37;;;10.53;;
13951;SDS011;39535;52.192;9.886;2023-06-22T04:32:41;10.50;;;9.67;;
13951;SDS011;39535;52.192;9.886;2023-06-22T04:35:08;11.13;;;10.23;;
13951;SDS011;39535;52.192;9.886;2023-06-22T04:37:36;11.90;;;10.70;;
13951;SDS011;39535;52.192;9.886;2023-06-22T04:40:04;12.90;;;11.67;;
13951;SDS011;39535;52.192;9.886;2023-06-22T04:42:33;14.03;;;12.73;;
13951;SDS011;39535;52.192;9.886;2023-06-22T04:45:00;14.27;;;12.33;;
13951;SDS011;39535;52.192;9.886;2023-06-22T04:47:33;13.10;;;11.23;;
13951;SDS011;39535;52.192;9.886;2023-06-22T04:49:59;12.43;;;11.33;;
13951;SDS011;39535;52.192;9.886;2023-06-22T04:52:30;11.13;;;10.10;;
13951;SDS011;39535;52.192;9.886;2023-06-22T04:54:58;20.17;;;10.57;;
13951;SDS011;39535;52.192;9.886;2023-06-22T04:57:25;13.67;;;12.57;;
13951;SDS011;39535;52.192;9.886;2023-06-22T04:59:57;14.27;;;13.17;;
13951;SDS011;39535;52.192;9.886;2023-06-22T05:02:26;14.13;;;12.90;;
13951;SDS011;39535;52.192;9.886;2023-06-22T05:04:56;14.57;;;13.47;;
13951;SDS011;39535;52.192;9.886;2023-06-22T05:07:24;14.53;;;13.33;;
13951;SDS011;39535;52.192;9.886;2023-06-22T05:09:51;13.63;;;12.70;;
13951;SDS011;39535;52.192;9.886;2023-06-22T05:12:19;14.87;;;13.87;;
13951;SDS011;39535;52.192;9.886;2023-06-22T05:14:45;15.37;;;14.23;;
13951;SDS011;39535;52.192;9.886;2023-06-22T05:17:12;15.20;;;14.10;;
13951;SDS011;39535;52.192;9.886;2023-06-22T05:19:38;14.33;;;13.13;;
13951;SDS011;39535;52.192;9.886;2023-06-22T05:22:05;14.50;;;13.30;;
13951;SDS011;39535;52.192;9.886;2023-06-22T05:24:31;14.93;;;13.73;;
13951;SDS011;39535;52.192;9.886;2023-06-22T05:26:57;15.30;;;14.20;;
13951;SDS011;39535;52.192;9.886;2023-06-22T05:29:25;16.47;;;15.27;;
13951;SDS011;39535;52.192;9.886;2023-06-22T05:31:52;15.27;;;14.17;;
13951;SDS011;39535;52.192;9.886;2023-06-22T05:34:18;15.70;;;14.57;;
13951;SDS011;39535;52.192;9.886;2023-06-22T05:36:44;16.73;;;15.40;;
13951;SDS011;39535;52.192;9.886;2023-06-22T05:39:11;16.53;;;15.10;;
13951;SDS011;39535;52.192;9.886;2023-06-22T05:41:38;16.67;;;15.27;;
13951;SDS011;39535;52.192;9.886;2023-06-22T05:44:05;15.87;;;14.47;;
13951;SDS011;39535;52.192;9.886;2023-06-22T05:46:32;16.13;;;14.87;;
13951;SDS011;39535;52.192;9.886;2023-06-22T05:48:59;15.73;;;14.53;;
13951;SDS011;39535;52.192;9.886;2023-06-22T05:51:25;16.73;;;15.43;;
13951;SDS011;39535;52.192;9.886;2023-06-22T05:53:51;16.73;;;15.37;;
13951;SDS011;39535;52.192;9.886;2023-06-22T05:56:18;15.67;;;14.50;;
13951;SDS011;39535;52.192;9.886;2023-06-22T05:58:45;15.60;;;14.50;;
13951;SDS011;39535;52.192;9.886;2023-06-22T06:01:12;15.27;;;14.10;;
13951;SDS011;39535;52.192;9.886;2023-06-22T06:03:41;14.20;;;13.13;;
13951;SDS011;39535;52.192;9.886;2023-06-22T06:16:18;14.00;;;12.93;;
13951;SDS011;39535;52.192;9.886;2023-06-22T06:29:04;15.07;;;13.93;;
13951;SDS011;39535;52.192;9.886;2023-06-22T06:34:42;14.40;;;13.40;;
13951;SDS011;39535;52.192;9.886;2023-06-22T06:37:10;15.47;;;14.27;;
13951;SDS011;39535;52.192;9.886;2023-06-22T06:39:37;13.90;;;12.60;;
13951;SDS011;39535;52.192;9.886;2023-06-22T06:42:04;13.20;;;12.20;;
13951;SDS011;39535;52.192;9.886;2023-06-22T06:44:38;13.47;;;12.37;;
13951;SDS011;39535;52.192;9.886;2023-06-22T06:47:04;14.77;;;13.67;;
13951;SDS011;39535;52.192;9.886;2023-06-22T06:49:33;14.40;;;13.37;;
13951;SDS011;39535;52.192;9.886;2023-06-22T06:52:00;14.40;;;13.37;;
13951;SDS011;39535;52.192;9.886;2023-06-22T06:54:26;15.27;;;13.73;;
13951;SDS011;39535;52.192;9.886;2023-06-22T06:56:53;15.37;;;13.97;;
13951;SDS011;39535;52.192;9.886;2023-06-22T06:59:19;13.57;;;12.63;;
13951;SDS011;39535;52.192;9.886;2023-06-22T07:01:47;14.03;;;12.83;;
13951;SDS011;39535;52.192;9.886;2023-06-22T07:04:13;14.70;;;13.40;;
13951;SDS011;39535;52.192;9.886;2023-06-22T07:06:40;12.97;;;12.07;;
13951;SDS011;39535;52.192;9.886;2023-06-22T07:09:07;12.73;;;11.67;;
13951;SDS011;39535;52.192;9.886;2023-06-22T07:11:33;13.37;;;12.47;;
13951;SDS011;39535;52.192;9.886;2023-06-22T07:14:01;12.63;;;11.63;;
13951;SDS011;39535;52.192;9.886;2023-06-22T07:16:27;13.50;;;12.50;;
13951;SDS011;39535;52.192;9.886;2023-06-22T07:18:56;12.77;;;11.70;;
13951;SDS011;39535;52.192;9.886;2023-06-22T07:21:22;12.00;;;11.00;;
13951;SDS011;39535;52.192;9.886;2023-06-22T07:23:48;12.53;;;11.27;;
13951;SDS011;39535;52.192;9.886;2023-06-22T07:26:15;12.47;;;11.27;;
13951;SDS011;39535;52.192;9.886;2023-06-22T07:28:41;11.33;;;10.60;;
13951;SDS011;39535;52.192;9.886;2023-06-22T07:31:08;13.00;;;11.50;;
13951;SDS011;39535;52.192;9.886;2023-06-22T07:33:34;11.93;;;11.03;;
13951;SDS011;39535;52.192;9.886;2023-06-22T07:36:02;14.07;;;12.20;;
13951;SDS011;39535;52.192;9.886;2023-06-22T07:38:32;11.80;;;10.90;;
13951;SDS011;39535;52.192;9.886;2023-06-22T07:40:59;11.60;;;10.80;;
13951;SDS011;39535;52.192;9.886;2023-06-22T07:43:25;11.63;;;10.83;;
13951;SDS011;39535;52.192;9.886;2023-06-22T07:45:51;10.50;;;9.50;;
13951;SDS011;39535;52.192;9.886;2023-06-22T07:48:19;11.67;;;10.87;;
13951;SDS011;39535;52.192;9.886;2023-06-22T07:50:46;11.17;;;10.37;;
13951;SDS011;39535;52.192;9.886;2023-06-22T07:53:13;12.17;;;11.27;;
13951;SDS011;39535;52.192;9.886;2023-06-22T07:55:40;12.73;;;11.27;;
13951;SDS011;39535;52.192;9.886;2023-06-22T07:58:06;12.43;;;11.57;;
13951;SDS011;39535;52.192;9.886;2023-06-22T08:00:33;11.90;;;11.00;;
13951;SDS011;39535;52.192;9.886;2023-06-22T08:02:59;11.97;;;11.07;;
13951;SDS011;39535;52.192;9.886;2023-06-22T08:05:30;12.70;;;11.40;;
13951;SDS011;39535;52.192;9.886;2023-06-22T08:07:56;11.93;;;10.93;;
13951;SDS011;39535;52.192;9.886;2023-06-22T08:10:24;11.67;;;10.43;;
13951;SDS011;39535;52.192;9.886;2023-06-22T08:12:51;11.27;;;10.27;;
13951;SDS011;39535;52.192;9.886;2023-06-22T08:15:18;10.90;;;9.87;;
13951;SDS011;39535;52.192;9.886;2023-06-22T08:17:44;10.90;;;9.97;;
13951;SDS011;39535;52.192;9.886;2023-06-22T08:20:11;12.43;;;10.33;;
13951;SDS011;39535;52.192;9.886;2023-06-22T08:22:38;11.27;;;10.57;;
13951;SDS011;39535;52.192;9.886;2023-06-22T08:25:05;11.60;;;10.73;;
13951;SDS011;39535;52.192;9.886;2023-06-22T08:27:34;11.97;;;10.93;;
13951;SDS011;39535;52.192;9.886;2023-06-22T08:30:00;11.17;;;10.37;;
13951;SDS011;39535;52.192;9.886;2023-06-22T08:32:27;11.77;;;10.67;;
13951;SDS011;39535;52.192;9.886;2023-06-22T08:34:54;11.17;;;10.27;;
13951;SDS011;39535;52.192;9.886;2023-06-22T08:37:22;11.80;;;11.00;;
13951;SDS011;39535;52.192;9.886;2023-06-22T08:39:55;11.40;;;10.60;;
13951;SDS011;39535;52.192;9.886;2023-06-22T08:42:21;13.40;;;12.03;;
13951;SDS011;39535;52.192;9.886;2023-06-22T08:44:50;11.53;;;10.73;;
13951;SDS011;39535;52.192;9.886;2023-06-22T08:47:16;10.43;;;9.73;;
13951;SDS011;39535;52.192;9.886;2023-06-22T08:49:43;11.87;;;10.97;;
13951;SDS011;39535;52.192;9.886;2023-06-22T08:52:09;11.07;;;10.17;;
13951;SDS011;39535;52.192;9.886;2023-06-22T08:54:35;11.57;;;10.77;;
13951;SDS011;39535;52.192;9.886;2023-06-22T08:57:02;10.73;;;10.00;;
13951;SDS011;39535;52.192;9.886;2023-06-22T08:59:28;10.90;;;10.20;;
13951;SDS011;39535;52.192;9.886;2023-06-22T09:01:56;11.20;;;10.30;;
13951;SDS011;39535;52.192;9.886;2023-06-22T09:04:25;11.33;;;10.60;;
13951;SDS011;39535;52.192;9.886;2023-06-22T09:06:51;11.07;;;10.07;;
13951;SDS011;39535;52.192;9.886;2023-06-22T09:09:18;10.90;;;9.77;;
13951;SDS011;39535;52.192;9.886;2023-06-22T09:11:45;11.83;;;10.93;;
13951;SDS011;39535;52.192;9.886;2023-06-22T09:14:12;11.67;;;10.87;;
13951;SDS011;39535;52.192;9.886;2023-06-22T09:16:38;10.70;;;9.97;;
13951;SDS011;39535;52.192;9.886;2023-06-22T09:19:06;11.30;;;10.50;;
13951;SDS011;39535;52.192;9.886;2023-06-22T09:21:32;12.47;;;11.47;;
13951;SDS011;39535;52.192;9.886;2023-06-22T09:23:58;11.30;;;10.60;;
13951;SDS011;39535;52.192;9.886;2023-06-22T09:26:25;11.17;;;10.37;;
13951;SDS011;39535;52.192;9.886;2023-06-22T09:28:51;11.50;;;10.70;;
13951;SDS011;39535;52.192;9.886;2023-06-22T09:31:17;12.40;;;11.47;;
13951;SDS011;39535;52.192;9.886;2023-06-22T09:33:50;12.60;;;11.60;;
13951;SDS011;39535;52.192;9.886;2023-06-22T09:36:18;12.00;;;11.10;;
13951;SDS011;39535;52.192;9.886;2023-06-22T09:38:44;12.77;;;11.87;;
13951;SDS011;39535;52.192;9.886;2023-06-22T09:41:11;13.77;;;12.47;;
13951;SDS011;39535;52.192;9.886;2023-06-22T09:43:37;13.33;;;12.30;;
13951;SDS011;39535;52.192;9.886;2023-06-22T09:46:03;12.83;;;11.77;;
13951;SDS011;39535;52.192;9.886;2023-06-22T09:48:30;13.53;;;12.57;;
13951;SDS011;39535;52.192;9.886;2023-06-22T09:50:57;14.00;;;12.67;;
13951;SDS011;39535;52.192;9.886;2023-06-22T09:53:24;14.17;;;13.13;;
13951;SDS011;39535;52.192;9.886;2023-06-22T09:55:51;13.93;;;12.70;;
13951;SDS011;39535;52.192;9.886;2023-06-22T09:58:17;14.63;;;13.43;;
13951;SDS011;39535;52.192;9.886;2023-06-22T10:00:43;14.57;;;13.47;;
13951;SDS011;39535;52.192;9.886;2023-06-22T10:03:10;14.03;;;13.03;;
13951;SDS011;39535;52.192;9.886;2023-06-22T10:05:36;14.27;;;13.13;;
13951;SDS011;39535;52.192;9.886;2023-06-22T10:08:02;15.30;;;14.20;;
13951;SDS011;39535;52.192;9.886;2023-06-22T10:10:30;15.17;;;14.07;;
13951;SDS011;39535;52.192;9.886;2023-06-22T10:12:57;15.23;;;13.70;;
13951;SDS011;39535;52.192;9.886;2023-06-22T10:15:28;16.03;;;14.93;;
13951;SDS011;39535;52.192;9.886;2023-06-22T10:17:55;12.97;;;12.07;;
13951;SDS011;39535;52.192;9.886;2023-06-22T10:20:21;15.37;;;14.27;;
13951;SDS011;39535;52.192;9.886;2023-06-22T10:22:47;14.33;;;13.23;;
13951;SDS011;39535;52.192;9.886;2023-06-22T10:25:14;14.53;;;13.53;;
13951;SDS011;39535;52.192;9.886;2023-06-22T10:27:41;15.77;;;14.43;;
13951;SDS011;39535;52.192;9.886;2023-06-22T10:30:09;16.90;;;15.70;;
13951;SDS011;39535;52.192;9.886;2023-06-22T10:32:38;16.40;;;15.27;;
13951;SDS011;39535;52.192;9.886;2023-06-22T10:35:05;15.57;;;14.50;;
13951;SDS011;39535;52.192;9.886;2023-06-22T10:37:31;16.80;;;15.40;;
13951;SDS011;39535;52.192;9.886;2023-06-22T10:39:58;17.23;;;16.07;;
13951;SDS011;39535;52.192;9.886;2023-06-22T10:42:24;17.83;;;16.43;;
13951;SDS011;39535;52.192;9.886;2023-06-22T10:44:52;17.90;;;16.60;;
13951;SDS011;39535;52.192;9.886;2023-06-22T10:47:18;17.10;;;15.97;;
13951;SDS011;39535;52.192;9.886;2023-06-22T10:49:45;17.27;;;16.17;;
13951;SDS011;39535;52.192;9.886;2023-06-22T10:52:11;17.13;;;15.93;;
13951;SDS011;39535;52.192;9.886;2023-06-22T10:54:37;17.90;;;16.53;;
13951;SDS011;39535;52.192;9.886;2023-06-22T10:57:04;17.73;;;16.63;;
13951;SDS011;39535;52.192;9.886;2023-06-22T10:59:30;16.00;;;14.93;;
13951;SDS011;39535;52.192;9.886;2023-06-22T11:01:58;16.47;;;15.17;;
13951;SDS011;39535;52.192;9.886;2023-06-22T11:04:25;16.97;;;15.77;;
13951;SDS011;39535;52.192;9.886;2023-06-22T11:06:51;17.17;;;15.97;;
13951;SDS011;39535;52.192;9.886;2023-06-22T11:09:17;17.33;;;15.83;;
13951;SDS011;39535;52.192;9.886;2023-06-22T11:11:46;17.67;;;16.57;;
13951;SDS011;39535;52.192;9.886;2023-06-22T11:14:12;18.80;;;17.40;;
13951;SDS011;39535;52.192;9.886;2023-06-22T11:16:39;20.40;;;18.63;;
13951;SDS011;39535;52.192;9.886;2023-06-22T11:19:06;19.07;;;17.57;;
13951;SDS011;39535;52.192;9.886;2023-06-22T11:21:33;19.40;;;17.70;;
13951;SDS011;39535;52.192;9.886;2023-06-22T11:23:59;19.00;;;17.67;;
13951;SDS011;39535;52.192;9.886;2023-06-22T11:26:26;21.77;;;19.60;;
13951;SDS011;39535;52.192;9.886;2023-06-22T11:28:53;17.83;;;16.73;;
13951;SDS011;39535;52.192;9.886;2023-06-22T11:31:19;17.47;;;16.20;;
13951;SDS011;39535;52.192;9.886;2023-06-22T11:33:45;18.50;;;17.17;;
13951;SDS011;39535;52.192;9.886;2023-06-22T11:36:14;17.67;;;16.57;;
13951;SDS011;39535;52.192;9.886;2023-06-22T11:38:41;17.33;;;16.13;;
13951;SDS011;39535;52.192;9.886;2023-06-22T11:41:07;17.80;;;16.70;;
13951;SDS011;39535;52.192;9.886;2023-06-22T11:43:34;19.00;;;17.70;;
13951;SDS011;39535;52.192;9.886;2023-06-22T11:46:01;19.30;;;18.00;;
13951;SDS011;39535;52.192;9.886;2023-06-22T11:48:28;17.87;;;16.57;;
13951;SDS011;39535;52.192;9.886;2023-06-22T11:50:55;18.30;;;17.10;;
13951;SDS011;39535;52.192;9.886;2023-06-22T11:53:23;16.83;;;15.70;;
13951;SDS011;39535;52.192;9.886;2023-06-22T11:55:51;16.63;;;15.60;;
13951;SDS011;39535;52.192;9.886;2023-06-22T11:58:17;16.33;;;15.27;;
13951;SDS011;39535;52.192;9.886;2023-06-22T12:00:44;15.80;;;14.67;;
13951;SDS011;39535;52.192;9.886;2023-06-22T12:03:10;15.50;;;14.47;;
13951;SDS011;39535;52.192;9.886;2023-06-22T12:05:37;15.87;;;14.97;;
13951;SDS011;39535;52.192;9.886;2023-06-22T12:08:04;16.33;;;15.37;;
13951;SDS011;39535;52.192;9.886;2023-06-22T12:10:32;15.20;;;14.20;;
13951;SDS011;39535;52.192;9.886;2023-06-22T12:12:59;16.20;;;15.20;;
13951;SDS011;39535;52.192;9.886;2023-06-22T12:15:26;15.73;;;14.73;;
13951;SDS011;39535;52.192;9.886;2023-06-22T12:17:52;15.17;;;14.17;;
13951;SDS011;39535;52.192;9.886;2023-06-22T12:20:19;15.57;;;14.20;;
13951;SDS011;39535;52.192;9.886;2023-06-22T12:22:45;15.63;;;14.73;;
13951;SDS011;39535;52.192;9.886;2023-06-22T12:25:12;14.60;;;13.40;;
13951;SDS011;39535;52.192;9.886;2023-06-22T12:27:40;14.17;;;13.37;;
13951;SDS011;39535;52.192;9.886;2023-06-22T12:30:08;14.70;;;13.70;;
13951;SDS011;39535;52.192;9.886;2023-06-22T12:32:35;13.93;;;12.93;;
13951;SDS011;39535;52.192;9.886;2023-06-22T12:35:01;15.20;;;14.20;;
13951;SDS011;39535;52.192;9.886;2023-06-22T12:37:28;15.60;;;14.70;;
13951;SDS011;39535;52.192;9.886;2023-06-22T12:39:56;14.10;;;13.30;;
13951;SDS011;39535;52.192;9.886;2023-06-22T12:42:22;15.20;;;14.33;;
13951;SDS011;39535;52.192;9.886;2023-06-22T12:44:50;14.83;;;14.00;;
13951;SDS011;39535;52.192;9.886;2023-06-22T12:47:17;15.80;;;14.40;;
13951;SDS011;39535;52.192;9.886;2023-06-22T12:49:45;14.70;;;13.90;;
13951;SDS011;39535;52.192;9.886;2023-06-22T12:52:11;16.70;;;15.13;;
13951;SDS011;39535;52.192;9.886;2023-06-22T12:54:37;15.97;;;15.03;;
13951;SDS011;39535;52.192;9.886;2023-06-22T12:57:04;15.47;;;14.37;;
13951;SDS011;39535;52.192;9.886;2023-06-22T12:59:31;15.00;;;14.10;;
13951;SDS011;39535;52.192;9.886;2023-06-22T13:01:58;15.33;;;14.33;;
13951;SDS011;39535;52.192;9.886;2023-06-22T13:04:25;14.33;;;13.43;;
13951;SDS011;39535;52.192;9.886;2023-06-22T13:06:51;15.10;;;14.20;;
13951;SDS011;39535;52.192;9.886;2023-06-22T13:09:18;14.37;;;13.47;;
13951;SDS011;39535;52.192;9.886;2023-06-22T13:11:44;14.50;;;13.47;;
13951;SDS011;39535;52.192;9.886;2023-06-22T13:14:11;13.77;;;12.97;;
13951;SDS011;39535;52.192;9.886;2023-06-22T13:16:37;13.67;;;12.73;;
13951;SDS011;39535;52.192;9.886;2023-06-22T13:19:05;241.23;;;33.47;;
13951;SDS011;39535;52.192;9.886;2023-06-22T13:21:31;13.23;;;12.27;;
13951;SDS011;39535;52.192;9.886;2023-06-22T13:23:59;12.67;;;11.93;;
13951;SDS011;39535;52.192;9.886;2023-06-22T13:26:26;12.33;;;11.63;;
13951;SDS011;39535;52.192;9.886;2023-06-22T13:28:53;12.83;;;12.03;;
13951;SDS011;39535;52.192;9.886;2023-06-22T13:31:20;11.83;;;11.20;;
13951;SDS011;39535;52.192;9.886;2023-06-22T13:33:46;11.67;;;10.97;;
13951;SDS011;39535;52.192;9.886;2023-06-22T13:36:15;11.73;;;10.97;;
13951;SDS011;39535;52.192;9.886;2023-06-22T13:38:42;11.43;;;10.73;;
13951;SDS011;39535;52.192;9.886;2023-06-22T13:41:08;11.27;;;10.67;;
13951;SDS011;39535;52.192;9.886;2023-06-22T13:43:34;11.33;;;10.67;;
13951;SDS011;39535;52.192;9.886;2023-06-22T13:46:01;11.13;;;10.43;;
13951;SDS011;39535;52.192;9.886;2023-06-22T13:48:27;11.77;;;10.97;;
13951;SDS011;39535;52.192;9.886;2023-06-22T13:50:54;11.97;;;11.20;;
13951;SDS011;39535;52.192;9.886;2023-06-22T13:53:21;11.63;;;10.97;;
13951;SDS011;39535;52.192;9.886;2023-06-22T13:55:48;12.77;;;11.83;;
13951;SDS011;39535;52.192;9.886;2023-06-22T13:58:15;11.37;;;10.77;;
13951;SDS011;39535;52.192;9.886;2023-06-22T14:00:41;11.57;;;10.73;;
13951;SDS011;39535;52.192;9.886;2023-06-22T14:03:08;11.27;;;10.57;;
13951;SDS011;39535;52.192;9.886;2023-06-22T14:05:34;11.63;;;10.93;;
13951;SDS011;39535;52.192;9.886;2023-06-22T14:08:00;11.83;;;11.03;;
13951;SDS011;39535;52.192;9.886;2023-06-22T14:10:28;10.87;;;10.27;;
13951;SDS011;39535;52.192;9.886;2023-06-22T14:12:54;12.07;;;11.37;;
13951;SDS011;39535;52.192;9.886;2023-06-22T14:15:21;11.40;;;10.70;;
13951;SDS011;39535;52.192;9.886;2023-06-22T14:17:47;11.23;;;10.53;;
13951;SDS011;39535;52.192;9.886;2023-06-22T14:20:13;11.63;;;10.93;;
13951;SDS011;39535;52.192;9.886;2023-06-22T14:22:40;12.23;;;11.50;;
13951;SDS011;39535;52.192;9.886;2023-06-22T14:25:07;11.57;;;10.73;;
13951;SDS011;39535;52.192;9.886;2023-06-22T14:27:35;11.43;;;10.73;;
13951;SDS011;39535;52.192;9.886;2023-06-22T14:30:01;12.03;;;11.13;;
13951;SDS011;39535;52.192;9.886;2023-06-22T14:32:28;11.43;;;10.70;;
13951;SDS011;39535;52.192;9.886;2023-06-22T14:34:55;11.50;;;10.77;;
13951;SDS011;39535;52.192;9.886;2023-06-22T14:37:22;11.97;;;11.27;;
13951;SDS011;39535;52.192;9.886;2023-06-22T14:39:48;12.17;;;11.47;;
13951;SDS011;39535;52.192;9.886;2023-06-22T14:42:14;11.57;;;10.97;;
13951;SDS011;39535;52.192;9.886;2023-06-22T14:44:42;11.40;;;10.70;;
13951;SDS011;39535;52.192;9.886;2023-06-22T14:47:09;12.23;;;11.40;;
13951;SDS011;39535;52.192;9.886;2023-06-22T14:49:36;11.17;;;10.50;;
13951;SDS011;39535;52.192;9.886;2023-06-22T14:52:02;10.90;;;10.23;;